createdAt,value
2023-11-02T00:01:09.038Z,8.89
2023-11-02T00:03:47.231Z,8.86
2023-11-02T00:06:26.648Z,8.84
2023-11-02T00:09:17.119Z,8.83
2023-11-02T00:12:04.228Z,8.81
2023-11-02T00:14:34.830Z,8.81
2023-11-02T00:17:12.719Z,8.76
2023-11-02T00:19:41.205Z,8.74
2023-11-02T00:22:11.288Z,8.70
2023-11-02T00:24:43.469Z,8.68
2023-11-02T00:27:12.721Z,8.63
2023-11-02T00:29:42.732Z,8.59
2023-11-02T00:32:11.530Z,8.50
2023-11-02T00:34:41.159Z,8.41
2023-11-02T00:37:09.874Z,8.36
2023-11-02T00:39:39.837Z,8.33
2023-11-02T00:42:08.088Z,8.30
2023-11-02T00:44:37.739Z,8.26
2023-11-02T00:47:06.644Z,8.24
2023-11-02T00:49:38.550Z,8.22
2023-11-02T00:52:08.186Z,8.20
2023-11-02T00:54:48.698Z,8.19
2023-11-02T00:57:21.828Z,8.19
2023-11-02T00:59:52.436Z,8.18
2023-11-02T01:02:20.579Z,8.15
2023-11-02T01:04:55.710Z,8.13
2023-11-02T01:07:25.905Z,8.12
2023-11-02T01:10:03.370Z,8.11
2023-11-02T01:12:39.144Z,8.10
2023-11-02T01:15:47.832Z,8.07
2023-11-02T01:18:16.537Z,8.03
2023-11-02T01:21:01.460Z,8.02
2023-11-02T01:23:30.715Z,8.00
2023-11-02T01:25:59.073Z,8.00
2023-11-02T01:28:53.560Z,7.98
2023-11-02T01:31:22.889Z,7.95
2023-11-02T01:33:54.983Z,7.91
2023-11-02T01:36:37.801Z,7.89
2023-11-02T01:39:31.681Z,7.85
2023-11-02T01:42:13.909Z,7.79
2023-11-02T01:45:07.712Z,7.75
2023-11-02T01:47:38.878Z,7.69
2023-11-02T01:50:22.714Z,7.65
2023-11-02T01:53:34.998Z,7.64
2023-11-02T01:56:31.666Z,7.60
2023-11-02T01:59:47.126Z,7.57
2023-11-02T02:02:30.317Z,7.53
2023-11-02T02:05:12.607Z,7.52
2023-11-02T02:08:19.273Z,7.51
2023-11-02T02:11:06.635Z,7.50
2023-11-02T02:13:59.888Z,7.50
2023-11-02T02:16:41.980Z,7.50
2023-11-02T02:19:34.486Z,7.48
2023-11-02T02:22:12.032Z,7.38
2023-11-02T02:24:53.557Z,7.29
2023-11-02T02:27:46.698Z,7.24
2023-11-02T02:30:37.382Z,7.21
2023-11-02T02:33:11.794Z,7.16
2023-11-02T02:35:57.855Z,7.15
2023-11-02T02:38:40.811Z,7.13
2023-11-02T02:41:12.406Z,7.10
2023-11-02T02:43:43.090Z,7.06
2023-11-02T02:46:13.401Z,7.01
2023-11-02T02:48:42.991Z,6.98
2023-11-02T02:51:11.695Z,6.96
2023-11-02T02:53:43.206Z,6.97
2023-11-02T02:56:15.056Z,6.99
2023-11-02T02:58:46.722Z,7.02
2023-11-02T03:01:18.795Z,7.05
2023-11-02T03:03:49.100Z,7.06
2023-11-02T03:06:21.582Z,7.07
2023-11-02T03:08:51.554Z,7.05
2023-11-02T03:11:22.148Z,7.04
2023-11-02T03:13:54.451Z,7.03
2023-11-02T03:16:24.109Z,7.04
2023-11-02T03:18:52.352Z,7.03
2023-11-02T03:21:22.128Z,7.01
2023-11-02T03:24:15.223Z,6.98
2023-11-02T03:27:02.356Z,6.97
2023-11-02T03:29:41.348Z,6.95
2023-11-02T03:32:19.039Z,6.93
2023-11-02T03:34:47.135Z,6.91
2023-11-02T03:37:41.568Z,6.90
2023-11-02T03:40:09.632Z,6.88
2023-11-02T03:43:06.240Z,6.87
2023-11-02T03:46:12.772Z,6.85
2023-11-02T03:48:59.806Z,6.83
2023-11-02T03:51:48.012Z,6.81
2023-11-02T03:54:34.974Z,6.81
2023-11-02T03:57:13.742Z,6.79
2023-11-02T03:59:48.679Z,6.77
2023-11-02T04:02:34.012Z,6.77
2023-11-02T04:05:08.688Z,6.76
2023-11-02T04:07:46.807Z,6.73
2023-11-02T04:10:16.291Z,6.71
2023-11-02T04:13:14.908Z,6.73
2023-11-02T04:15:43.852Z,6.72
2023-11-02T04:18:12.356Z,6.71
2023-11-02T04:20:40.690Z,6.74
2023-11-02T04:23:09.407Z,6.77
2023-11-02T04:25:38.750Z,6.76
2023-11-02T04:28:07.048Z,6.75
2023-11-02T04:30:36.380Z,6.76
2023-11-02T04:33:05.342Z,6.71
2023-11-02T04:35:33.682Z,6.71
2023-11-02T04:38:06.836Z,6.74
2023-11-02T04:40:36.074Z,6.76
2023-11-02T04:43:04.679Z,6.78
2023-11-02T04:45:35.491Z,6.80
2023-11-02T04:48:04.779Z,6.81
2023-11-02T04:50:33.871Z,6.81
2023-11-02T04:53:02.725Z,6.82
2023-11-02T04:55:31.225Z,6.81
2023-11-02T04:57:59.869Z,6.82
2023-11-02T05:00:28.333Z,6.81
2023-11-02T05:02:56.661Z,6.83
2023-11-02T05:05:25.092Z,6.83
2023-11-02T05:07:53.616Z,6.84
2023-11-02T05:10:21.834Z,6.85
2023-11-02T05:12:49.917Z,6.85
2023-11-02T05:15:18.296Z,6.84
2023-11-02T05:17:46.542Z,6.83
2023-11-02T05:20:14.976Z,6.84
2023-11-02T05:22:43.266Z,6.87
2023-11-02T05:25:11.667Z,6.89
2023-11-02T05:27:40.042Z,6.92
2023-11-02T05:30:09.701Z,6.96
2023-11-02T05:32:39.671Z,7.02
2023-11-02T05:35:10.887Z,7.10
2023-11-02T05:37:39.243Z,7.13
2023-11-02T05:40:10.054Z,7.19
2023-11-02T05:42:38.915Z,7.23
2023-11-02T05:45:08.472Z,7.22
2023-11-02T05:47:36.891Z,7.24
2023-11-02T05:50:06.543Z,7.27
2023-11-02T05:52:35.394Z,7.25
2023-11-02T05:55:03.940Z,7.25
2023-11-02T05:57:32.329Z,7.27
2023-11-02T06:00:01.246Z,7.28
2023-11-02T06:02:37.092Z,7.24
2023-11-02T06:05:06.895Z,7.27
2023-11-02T06:07:36.068Z,7.36
2023-11-02T06:10:06.031Z,7.46
2023-11-02T06:12:34.078Z,7.52
2023-11-02T06:15:02.200Z,7.60
2023-11-02T06:17:30.483Z,7.69
2023-11-02T06:19:58.774Z,7.79
2023-11-02T06:22:27.119Z,7.85
2023-11-02T06:24:55.394Z,7.91
2023-11-02T06:27:23.700Z,7.98
2023-11-02T06:29:52.646Z,8.03
2023-11-02T06:32:21.391Z,8.04
2023-11-02T06:34:49.635Z,8.05
2023-11-02T06:37:20.340Z,8.03
2023-11-02T06:39:49.666Z,8.08
2023-11-02T06:42:18.043Z,8.13
2023-11-02T06:44:46.350Z,8.19
2023-11-02T06:47:16.683Z,8.24
2023-11-02T06:49:45.597Z,8.30
2023-11-02T06:52:15.020Z,8.36
2023-11-02T06:54:46.098Z,8.41
2023-11-02T06:57:14.733Z,8.45
2023-11-02T06:59:43.465Z,8.50
2023-11-02T07:02:11.947Z,8.56
2023-11-02T07:04:40.080Z,8.67
2023-11-02T07:07:08.552Z,8.76
2023-11-02T07:09:37.218Z,8.87
2023-11-02T07:12:06.432Z,8.98
2023-11-02T07:14:34.527Z,9.14
2023-11-02T07:17:02.656Z,9.27
2023-11-02T07:19:30.828Z,9.43
2023-11-02T07:21:59.815Z,9.57
2023-11-02T07:24:29.073Z,9.66
2023-11-02T07:26:58.459Z,9.68
2023-11-02T07:29:26.881Z,9.74
2023-11-02T07:31:55.065Z,9.85
2023-11-02T07:34:23.188Z,9.96
2023-11-02T07:36:53.135Z,10.01
2023-11-02T07:39:21.880Z,10.09
2023-11-02T07:41:50.434Z,10.16
2023-11-02T07:44:19.383Z,10.21
2023-11-02T07:46:47.857Z,10.24
2023-11-02T07:49:16.262Z,10.29
2023-11-02T07:51:44.674Z,10.31
2023-11-02T07:54:13.111Z,10.34
2023-11-02T07:59:10.803Z,10.51
2023-11-02T08:01:40.009Z,10.62
2023-11-02T08:04:08.867Z,10.70
2023-11-02T08:06:37.244Z,10.80
2023-11-02T08:09:05.951Z,10.89
2023-11-02T08:11:41.053Z,10.99
2023-11-02T08:14:09.333Z,11.15
2023-11-02T08:16:37.594Z,11.31
2023-11-02T08:19:05.756Z,11.44
2023-11-02T08:21:34.068Z,11.53
2023-11-02T08:24:03.836Z,11.66
2023-11-02T08:26:32.069Z,11.76
2023-11-02T08:29:00.345Z,11.81
2023-11-02T08:31:30.321Z,11.89
2023-11-02T08:34:02.247Z,11.98
2023-11-02T08:36:33.192Z,12.11
2023-11-02T08:39:01.554Z,12.22
2023-11-02T08:41:34.164Z,12.33
2023-11-02T08:44:04.562Z,12.42
2023-11-02T08:46:38.072Z,12.51
2023-11-02T08:49:07.845Z,12.57
2023-11-02T08:51:36.478Z,12.57
2023-11-02T08:54:05.621Z,12.60
2023-11-02T08:56:33.787Z,12.64
2023-11-02T08:59:02.226Z,12.68
2023-11-02T09:01:30.598Z,12.76
2023-11-02T09:03:58.946Z,12.82
2023-11-02T09:06:27.731Z,12.88
2023-11-02T09:08:59.384Z,12.98
2023-11-02T09:11:30.536Z,13.06
2023-11-02T09:13:59.830Z,13.16
2023-11-02T09:16:28.127Z,13.25
2023-11-02T09:18:59.903Z,13.38
2023-11-02T09:21:30.665Z,13.52
2023-11-02T09:24:02.447Z,13.67
2023-11-02T09:26:30.601Z,13.82
2023-11-02T09:28:59.882Z,14.04
2023-11-02T09:31:31.348Z,14.30
2023-11-02T09:34:04.405Z,14.49
2023-11-02T09:36:32.943Z,14.62
2023-11-02T09:39:01.667Z,14.67
2023-11-02T09:41:30.777Z,14.76
2023-11-02T09:44:00.608Z,14.91
2023-11-02T09:46:29.266Z,15.05
2023-11-02T09:48:57.503Z,15.22
2023-11-02T09:51:26.018Z,15.28
2023-11-02T09:53:54.612Z,15.33
2023-11-02T09:56:25.055Z,15.45
2023-11-02T09:58:53.935Z,15.57
2023-11-02T10:01:22.558Z,15.65
2023-11-02T10:03:50.752Z,15.62
2023-11-02T10:06:19.652Z,15.68
2023-11-02T10:08:47.906Z,15.63
2023-11-02T10:11:19.479Z,15.58
2023-11-02T10:13:50.616Z,15.65
2023-11-02T10:16:23.319Z,15.81
2023-11-02T10:18:52.554Z,16.23
2023-11-02T10:21:21.400Z,16.74
2023-11-02T10:23:57.602Z,17.16
2023-11-02T10:26:28.344Z,17.44
2023-11-02T10:28:59.309Z,17.50
2023-11-02T10:31:32.263Z,17.48
2023-11-02T10:34:02.307Z,17.39
2023-11-02T10:36:34.590Z,17.21
2023-11-02T10:39:03.480Z,17.07
2023-11-02T10:41:34.240Z,16.95
2023-11-02T10:44:06.052Z,16.91
2023-11-02T10:46:35.645Z,16.99
2023-11-02T10:49:12.429Z,17.11
2023-11-02T10:51:44.730Z,17.26
2023-11-02T10:54:18.716Z,17.35
2023-11-02T10:56:53.992Z,17.45
2023-11-02T10:59:25.117Z,17.56
2023-11-02T11:01:53.269Z,17.95
2023-11-02T11:04:23.022Z,18.53
2023-11-02T11:06:52.103Z,19.04
2023-11-02T11:09:22.933Z,19.53
2023-11-02T11:11:51.383Z,19.96
2023-11-02T11:14:20.911Z,20.26
2023-11-02T11:16:51.286Z,20.55
2023-11-02T11:19:20.231Z,20.54
2023-11-02T11:21:50.032Z,20.44
2023-11-02T11:24:18.877Z,20.21
2023-11-02T11:26:51.825Z,19.95
2023-11-02T11:29:42.673Z,19.94
2023-11-02T11:32:26.148Z,20.13
2023-11-02T11:34:54.241Z,20.25
2023-11-02T11:37:44.704Z,20.36
2023-11-02T11:40:23.677Z,20.50
2023-11-02T11:43:17.313Z,20.76
2023-11-02T11:45:53.201Z,21.06
2023-11-02T11:48:36.798Z,21.16
2023-11-02T11:51:43.637Z,21.20
2023-11-02T11:54:15.562Z,21.09
2023-11-02T11:56:46.936Z,21.07
2023-11-02T11:59:15.144Z,21.04
2023-11-02T12:01:43.357Z,20.91
2023-11-02T12:04:47.482Z,20.80
2023-11-02T12:07:22.019Z,20.69
2023-11-02T12:09:51.817Z,20.46
2023-11-02T12:12:20.317Z,20.27
2023-11-02T12:14:48.773Z,20.07
2023-11-02T12:17:17.396Z,19.87
2023-11-02T12:19:46.098Z,19.72
2023-11-02T12:22:15.079Z,19.65
2023-11-02T12:24:56.306Z,19.59
2023-11-02T12:27:25.135Z,19.51
2023-11-02T12:30:01.245Z,19.36
2023-11-02T12:32:30.187Z,19.14
2023-11-02T12:34:58.793Z,18.97
2023-11-02T12:37:28.153Z,18.78
2023-11-02T12:40:01.681Z,18.58
2023-11-02T12:42:30.320Z,18.46
2023-11-02T12:45:01.118Z,18.39
2023-11-02T12:47:43.214Z,18.40
2023-11-02T12:50:29.266Z,18.37
2023-11-02T12:52:58.689Z,18.36
2023-11-02T12:55:30.030Z,18.34
2023-11-02T12:57:58.418Z,18.36
2023-11-02T13:00:28.533Z,18.39
2023-11-02T13:03:13.298Z,18.35
2023-11-02T13:05:41.796Z,18.29
2023-11-02T13:08:19.181Z,18.15
2023-11-02T13:10:47.314Z,18.02
2023-11-02T13:13:15.581Z,17.92
2023-11-02T13:15:44.876Z,17.83
2023-11-02T13:18:14.899Z,17.71
2023-11-02T13:20:44.871Z,17.62
2023-11-02T13:23:13.146Z,17.55
2023-11-02T13:25:41.811Z,17.44
2023-11-02T13:28:12.854Z,17.35
2023-11-02T13:30:42.728Z,17.25
2023-11-02T13:33:12.633Z,17.12
2023-11-02T13:35:41.153Z,16.98
2023-11-02T13:38:09.484Z,16.83
2023-11-02T13:40:37.828Z,16.70
2023-11-02T13:43:07.611Z,16.58
2023-11-02T13:45:36.941Z,16.50
2023-11-02T13:48:05.606Z,16.42
2023-11-02T13:50:34.743Z,16.28
2023-11-02T13:53:03.718Z,16.15
2023-11-02T13:55:33.512Z,16.06
2023-11-02T13:58:02.004Z,15.93
2023-11-02T14:00:30.634Z,15.81
2023-11-02T14:02:59.327Z,15.71
2023-11-02T14:05:28.262Z,15.58
2023-11-02T14:07:56.647Z,15.44
2023-11-02T14:10:26.310Z,15.32
2023-11-02T14:12:54.452Z,15.19
2023-11-02T14:15:23.627Z,15.09
2023-11-02T14:17:52.423Z,15.00
2023-11-02T14:20:20.990Z,14.93
2023-11-02T14:22:50.361Z,14.84
2023-11-02T14:25:18.459Z,14.77
2023-11-02T14:27:48.688Z,14.70
2023-11-02T14:30:17.041Z,14.62
2023-11-02T14:32:47.687Z,14.54
2023-11-02T14:35:18.459Z,14.46
2023-11-02T14:37:46.589Z,14.36
2023-11-02T14:40:17.489Z,14.28
2023-11-02T14:42:46.251Z,14.19
2023-11-02T14:45:14.812Z,14.10
2023-11-02T14:47:44.141Z,14.02
2023-11-02T14:50:12.800Z,13.93
2023-11-02T14:52:46.734Z,13.83
2023-11-02T14:55:15.779Z,13.71
2023-11-02T14:57:44.308Z,13.60
2023-11-02T15:00:14.238Z,13.53
2023-11-02T15:02:42.702Z,13.45
2023-11-02T15:05:11.473Z,13.38
2023-11-02T15:07:40.448Z,13.31
2023-11-02T15:10:09.367Z,13.23
2023-11-02T15:12:38.223Z,13.17
2023-11-02T15:15:08.102Z,13.10
2023-11-02T15:17:36.912Z,13.02
2023-11-02T15:20:06.920Z,12.93
2023-11-02T15:22:59.946Z,12.83
2023-11-02T15:25:28.513Z,12.75
2023-11-02T15:27:57.284Z,12.68
2023-11-02T15:30:25.833Z,12.63
2023-11-02T15:32:54.487Z,12.60
2023-11-02T15:35:22.704Z,12.53
2023-11-02T15:37:50.783Z,12.47
2023-11-02T15:40:19.590Z,12.43
2023-11-02T15:42:48.059Z,12.39
2023-11-02T15:45:16.728Z,12.34
2023-11-02T15:47:44.822Z,12.31
2023-11-02T15:50:13.412Z,12.27
2023-11-02T15:52:45.588Z,12.23
2023-11-02T15:55:14.098Z,12.19
2023-11-02T15:57:44.655Z,12.14
2023-11-02T16:00:14.715Z,12.11
2023-11-02T16:02:44.097Z,12.07
2023-11-02T16:05:13.933Z,12.05
2023-11-02T16:07:42.618Z,12.02
2023-11-02T16:10:14.451Z,12.00
2023-11-02T16:12:42.832Z,11.97
2023-11-02T16:15:12.972Z,11.92
2023-11-02T16:17:43.182Z,11.88
2023-11-02T16:20:18.855Z,11.87
2023-11-02T16:22:49.279Z,11.87
2023-11-02T16:25:19.718Z,11.85
2023-11-02T16:27:49.495Z,11.83
2023-11-02T16:30:17.915Z,11.83
2023-11-02T16:32:46.664Z,11.83
2023-11-02T16:35:30.613Z,11.85
2023-11-02T16:38:05.527Z,11.89
2023-11-02T16:40:33.820Z,11.92
2023-11-02T16:43:04.934Z,11.91
2023-11-02T16:45:37.201Z,11.93
2023-11-02T16:48:09.353Z,11.96
2023-11-02T16:50:40.811Z,11.99
2023-11-02T16:53:09.198Z,12.00
2023-11-02T16:55:42.197Z,12.03
2023-11-02T16:58:11.295Z,12.06
2023-11-02T17:00:39.533Z,12.06
2023-11-02T17:03:10.860Z,12.06
2023-11-02T17:05:40.374Z,12.04
2023-11-02T17:08:08.766Z,12.04
2023-11-02T17:10:36.891Z,12.03
2023-11-02T17:13:05.742Z,12.02
2023-11-02T17:15:34.455Z,12.01
2023-11-02T17:18:03.864Z,12.00
2023-11-02T17:20:32.177Z,11.98
2023-11-02T17:23:00.531Z,11.94
2023-11-02T17:25:28.777Z,11.89
2023-11-02T17:27:59.048Z,11.83
2023-11-02T17:30:27.564Z,11.77
2023-11-02T17:32:56.208Z,11.68
2023-11-02T17:35:25.770Z,11.60
2023-11-02T17:37:54.017Z,11.55
2023-11-02T17:40:24.015Z,11.47
2023-11-02T17:42:52.786Z,11.39
2023-11-02T17:45:21.366Z,11.33
2023-11-02T17:47:49.459Z,11.27
2023-11-02T17:50:18.514Z,11.21
2023-11-02T17:52:49.803Z,11.16
2023-11-02T17:55:19.234Z,11.12
2023-11-02T17:57:50.606Z,11.14
2023-11-02T18:00:22.267Z,11.12
2023-11-02T18:02:51.192Z,11.11
2023-11-02T18:05:24.503Z,11.09
2023-11-02T18:07:52.735Z,11.07
2023-11-02T18:10:28.098Z,11.10
2023-11-02T18:12:56.705Z,11.10
2023-11-02T18:15:26.893Z,11.09
2023-11-02T18:17:55.721Z,11.10
2023-11-02T18:20:24.474Z,11.09
2023-11-02T18:22:52.724Z,11.04
2023-11-02T18:25:23.837Z,10.99
2023-11-02T18:27:54.987Z,10.93
2023-11-02T18:30:24.442Z,10.92
2023-11-02T18:32:55.846Z,10.91
2023-11-02T18:35:25.554Z,10.90
2023-11-02T18:37:53.813Z,10.90
2023-11-02T18:40:26.141Z,10.86
2023-11-02T18:42:59.538Z,10.83
2023-11-02T18:45:28.490Z,10.82
2023-11-02T18:48:02.711Z,10.83
2023-11-02T18:50:34.617Z,10.80
2023-11-02T18:53:05.726Z,10.75
2023-11-02T18:55:33.972Z,10.73
2023-11-02T18:58:05.480Z,10.71
2023-11-02T19:00:35.122Z,10.70
2023-11-02T19:03:04.640Z,10.70
2023-11-02T19:05:36.132Z,10.69
2023-11-02T19:08:05.266Z,10.70
2023-11-02T19:10:34.581Z,10.74
2023-11-02T19:13:05.555Z,10.79
2023-11-02T19:15:34.162Z,10.83
2023-11-02T19:18:07.478Z,10.86
2023-11-02T19:20:36.037Z,10.91
2023-11-02T19:23:04.509Z,10.94
2023-11-02T19:25:33.441Z,10.97
2023-11-02T19:28:14.134Z,11.00
2023-11-02T19:30:42.429Z,11.03
2023-11-02T19:33:11.305Z,11.08
2023-11-02T19:35:43.019Z,11.12
2023-11-02T19:38:11.225Z,11.18
2023-11-02T19:40:42.034Z,11.23
2023-11-02T19:43:11.779Z,11.27
2023-11-02T19:45:42.594Z,11.31
2023-11-02T19:48:11.117Z,11.36
2023-11-02T19:50:39.318Z,11.41
2023-11-02T19:53:08.797Z,11.43
2023-11-02T19:55:37.153Z,11.47
2023-11-02T19:58:05.571Z,11.51
2023-11-02T20:00:33.903Z,11.54
2023-11-02T20:03:02.591Z,11.58
2023-11-02T20:05:31.096Z,11.64
2023-11-02T20:07:59.731Z,11.67
2023-11-02T20:10:28.640Z,11.71
2023-11-02T20:12:57.017Z,11.74
2023-11-02T20:15:25.748Z,11.78
2023-11-02T20:17:54.018Z,11.82
2023-11-02T20:20:23.991Z,11.86
2023-11-02T20:22:52.044Z,11.92
2023-11-02T20:25:20.179Z,11.96
2023-11-02T20:27:48.909Z,11.98
2023-11-02T20:30:17.697Z,12.00
2023-11-02T20:32:50.547Z,12.04
2023-11-02T20:35:18.907Z,12.09
2023-11-02T20:37:46.991Z,12.12
2023-11-02T20:40:16.893Z,12.14
2023-11-02T20:42:47.864Z,12.15
2023-11-02T20:45:16.934Z,12.17
2023-11-02T20:47:45.799Z,12.18
2023-11-02T20:50:14.223Z,12.19
2023-11-02T20:52:42.814Z,12.22
2023-11-02T20:55:11.397Z,12.21
2023-11-02T20:57:39.772Z,12.20
2023-11-02T21:00:08.957Z,12.16
2023-11-02T21:02:37.794Z,12.13
2023-11-02T21:05:07.833Z,12.12
2023-11-02T21:07:35.986Z,12.10
2023-11-02T21:10:05.206Z,12.12
2023-11-02T21:12:33.946Z,12.15
2023-11-02T21:15:05.282Z,12.15
2023-11-02T21:17:34.438Z,12.13
2023-11-02T21:20:03.154Z,12.09
2023-11-02T21:22:31.183Z,12.06
2023-11-02T21:24:59.633Z,12.05
2023-11-02T21:27:27.771Z,12.05
2023-11-02T21:29:56.396Z,12.04
2023-11-02T21:32:24.879Z,12.05
2023-11-02T21:34:53.188Z,12.05
2023-11-02T21:37:21.402Z,12.05
2023-11-02T21:39:49.580Z,12.07
2023-11-02T21:42:17.840Z,12.08
2023-11-02T21:44:48.033Z,12.09
2023-11-02T21:47:16.623Z,12.10
2023-11-02T21:49:45.439Z,12.12
2023-11-02T21:52:14.252Z,12.15
2023-11-02T21:54:42.698Z,12.17
2023-11-02T21:57:10.820Z,12.17
2023-11-02T21:59:39.120Z,12.18
2023-11-02T22:02:07.419Z,12.19
2023-11-02T22:04:35.960Z,12.18
2023-11-02T22:07:05.214Z,12.18
2023-11-02T22:09:36.016Z,12.18
2023-11-02T22:12:04.981Z,12.20
2023-11-02T22:14:33.176Z,12.22
2023-11-02T22:17:01.513Z,12.22
2023-11-02T22:19:29.744Z,12.23
2023-11-02T22:21:58.186Z,12.23
2023-11-02T22:24:26.379Z,12.21
2023-11-02T22:26:54.496Z,12.21
2023-11-02T22:29:23.667Z,12.18
2023-11-02T22:31:52.360Z,12.17
2023-11-02T22:34:20.984Z,12.16
2023-11-02T22:36:49.523Z,12.15
2023-11-02T22:39:18.016Z,12.15
2023-11-02T22:41:46.723Z,12.15
2023-11-02T22:44:15.175Z,12.14
2023-11-02T22:46:43.522Z,12.15
2023-11-02T22:49:11.651Z,12.16
2023-11-02T22:51:40.722Z,12.15
2023-11-02T22:54:09.470Z,12.11
2023-11-02T22:56:37.605Z,12.08
2023-11-02T22:59:06.961Z,12.05
2023-11-02T23:01:35.313Z,12.04
2023-11-02T23:04:04.124Z,12.01
2023-11-02T23:06:32.334Z,12.00
2023-11-02T23:09:00.613Z,11.99
2023-11-02T23:11:28.629Z,12.00
2023-11-02T23:13:56.974Z,12.01
2023-11-02T23:16:25.018Z,12.02
2023-11-02T23:19:02.020Z,12.04
2023-11-02T23:21:30.844Z,12.07
2023-11-02T23:23:59.095Z,12.06
2023-11-02T23:26:27.495Z,12.06
2023-11-02T23:29:03.440Z,12.05
2023-11-02T23:31:37.270Z,12.03
2023-11-02T23:34:06.084Z,12.01
2023-11-02T23:36:34.299Z,11.99
2023-11-02T23:39:02.679Z,11.98
2023-11-02T23:41:38.541Z,11.95
2023-11-02T23:44:07.516Z,11.94
2023-11-02T23:46:35.604Z,11.94
2023-11-02T23:49:04.048Z,11.95
2023-11-02T23:51:32.761Z,11.94
2023-11-02T23:54:00.847Z,11.96
2023-11-02T23:56:36.209Z,11.97
2023-11-02T23:59:06.649Z,12.02
